Time;durP1;ratioP1;P1;durP2;ratioP2;P2;SDS_P1;SDS_P2;PMS_P1;PMS_P2;Temp;Humidity;BMP_temperature;BMP_pressure;BME280_temperature;BME280_humidity;BME280_pressure;Samples;Min_cycle;Max_cycle;Signal;HPM_P1;HPM_P2
2024/02/21 00:01:22;;;;;;;13.90;4.87;;;7.30;99.90;;;;;;5038654;28;20217;-57
2024/02/21 00:03:48;;;;;;;17.70;5.73;;;7.30;99.90;;;;;;5034515;28;20714;-58
2024/02/21 00:06:14;;;;;;;27.10;6.53;;;7.40;99.90;;;;;;5036742;28;20184;-53
2024/02/21 00:08:39;;;;;;;28.73;7.00;;;7.30;99.90;;;;;;5038908;28;20187;-56
2024/02/21 00:11:05;;;;;;;19.77;5.40;;;7.30;99.90;;;;;;5039421;28;20200;-55
2024/02/21 00:13:30;;;;;;;19.73;5.43;;;7.20;99.90;;;;;;5039385;28;20562;-54
2024/02/21 00:15:56;;;;;;;17.63;6.27;;;7.20;99.90;;;;;;5047212;28;20647;-57
2024/02/21 00:18:22;;;;;;;23.60;7.20;;;7.20;99.90;;;;;;5030342;28;20662;-56
2024/02/21 00:20:47;;;;;;;21.60;5.50;;;7.30;99.90;;;;;;5030779;28;20180;-57
2024/02/21 00:23:13;;;;;;;16.23;4.87;;;7.30;99.90;;;;;;5037006;28;20179;-52
2024/02/21 00:25:39;;;;;;;13.70;5.03;;;7.20;99.90;;;;;;5041174;28;20208;-60
2024/02/21 00:28:05;;;;;;;17.63;5.17;;;7.30;99.90;;;;;;5038578;28;20233;-56
2024/02/21 00:30:31;;;;;;;12.17;4.53;;;7.40;99.90;;;;;;5030803;28;20555;-55
2024/02/21 00:32:57;;;;;;;18.03;5.20;;;7.40;99.90;;;;;;5038897;28;20180;-55
2024/02/21 00:35:22;;;;;;;15.17;4.80;;;7.40;99.90;;;;;;5030866;28;20191;-53
2024/02/21 00:37:48;;;;;;;17.37;5.17;;;7.30;99.90;;;;;;5030043;28;20184;-57
2024/02/21 00:40:19;;;;;;;17.30;4.53;;;7.40;99.90;;;;;;5030816;28;20271;-57
2024/02/21 00:42:48;;;;;;;21.40;5.13;;;7.40;99.90;;;;;;5030485;28;20216;-53
2024/02/21 00:45:14;;;;;;;15.40;5.67;;;7.40;99.90;;;;;;5036665;28;20242;-56
2024/02/21 00:47:39;;;;;;;15.07;5.53;;;7.30;99.90;;;;;;5033283;28;20233;-53
2024/02/21 00:50:07;;;;;;;14.70;5.50;;;7.30;99.90;;;;;;5037319;28;20211;-56
2024/02/21 00:52:33;;;;;;;17.50;5.13;;;7.30;99.90;;;;;;5039194;28;20282;-56
2024/02/21 00:54:59;;;;;;;16.27;5.43;;;7.30;99.90;;;;;;5038623;28;20179;-54
2024/02/21 00:57:24;;;;;;;15.90;6.10;;;7.30;99.90;;;;;;5045495;28;20206;-57
2024/02/21 00:59:50;;;;;;;18.53;6.17;;;7.40;99.90;;;;;;5050051;28;20206;-56
2024/02/21 01:02:15;;;;;;;20.67;5.80;;;7.40;99.90;;;;;;5043927;28;20289;-56
2024/02/21 01:04:41;;;;;;;13.03;4.93;;;7.40;99.90;;;;;;5030088;28;20203;-54
2024/02/21 01:07:06;;;;;;;22.50;5.67;;;7.40;99.90;;;;;;5034445;28;20183;-58
2024/02/21 01:09:32;;;;;;;20.87;5.47;;;7.40;99.90;;;;;;5013145;28;20175;-60
2024/02/21 01:11:58;;;;;;;22.07;7.37;;;7.40;99.90;;;;;;5030857;28;20571;-60
2024/02/21 01:14:23;;;;;;;15.83;6.20;;;7.40;99.90;;;;;;5037075;28;20608;-60
2024/02/21 01:16:49;;;;;;;20.43;6.47;;;7.40;99.90;;;;;;5041139;28;20187;-60
2024/02/21 01:19:14;;;;;;;20.43;5.93;;;7.40;99.90;;;;;;5026086;28;20223;-60
2024/02/21 01:21:40;;;;;;;13.30;5.70;;;7.40;99.90;;;;;;5029913;28;20204;-60
2024/02/21 01:24:06;;;;;;;15.97;6.20;;;7.40;99.90;;;;;;5030110;28;20679;-61
2024/02/21 01:26:31;;;;;;;20.03;5.87;;;7.40;99.90;;;;;;5029936;28;20188;-58
2024/02/21 01:28:57;;;;;;;16.97;5.30;;;7.50;99.90;;;;;;5041619;28;20175;-59
2024/02/21 01:31:22;;;;;;;15.17;5.47;;;7.50;99.90;;;;;;5041439;28;20207;-61
2024/02/21 01:33:48;;;;;;;16.17;5.17;;;7.50;99.90;;;;;;5047432;28;20186;-60
2024/02/21 01:36:13;;;;;;;17.20;5.03;;;7.60;99.90;;;;;;5038150;28;20230;-60
2024/02/21 01:38:39;;;;;;;19.13;5.87;;;7.60;99.90;;;;;;5029696;28;20556;-60
2024/02/21 01:41:04;;;;;;;13.63;5.17;;;7.50;99.90;;;;;;5037636;28;20215;-60
2024/02/21 01:43:30;;;;;;;19.27;5.30;;;7.50;99.90;;;;;;5045833;28;20199;-60
2024/02/21 01:45:57;;;;;;;15.40;5.30;;;7.60;99.90;;;;;;5045891;28;20636;-60
2024/02/21 01:48:23;;;;;;;12.70;5.00;;;7.50;99.90;;;;;;5036570;28;20666;-61
2024/02/21 01:50:50;;;;;;;15.10;5.10;;;7.60;99.90;;;;;;5038651;28;20241;-60
2024/02/21 01:53:21;;;;;;;16.73;4.50;;;7.50;99.90;;;;;;5029622;28;20199;-59
2024/02/21 01:55:47;;;;;;;15.60;4.87;;;7.50;99.90;;;;;;5045807;28;20278;-60
2024/02/21 01:58:17;;;;;;;15.53;5.40;;;7.50;99.90;;;;;;5029272;28;20187;-61
2024/02/21 02:00:43;;;;;;;19.80;6.17;;;7.50;99.90;;;;;;5030837;28;20846;-61
2024/02/21 02:03:16;;;;;;;17.23;5.63;;;7.40;99.90;;;;;;5035840;28;20191;-61
2024/02/21 02:05:51;;;;;;;12.97;5.23;;;7.50;99.90;;;;;;5038957;28;20219;-59
2024/02/21 02:08:18;;;;;;;16.20;5.60;;;7.50;99.90;;;;;;5049082;28;20217;-60
2024/02/21 02:10:45;;;;;;;17.13;5.40;;;7.50;99.90;;;;;;5047541;28;20189;-60
2024/02/21 02:13:11;;;;;;;15.03;5.97;;;7.60;99.90;;;;;;5043028;28;20647;-61
2024/02/21 02:15:50;;;;;;;18.50;5.57;;;7.50;99.90;;;;;;5032570;28;20192;-61
2024/02/21 02:18:17;;;;;;;17.40;6.50;;;7.60;99.90;;;;;;5048744;28;20186;-60
2024/02/21 02:20:45;;;;;;;18.23;6.17;;;7.50;99.90;;;;;;5039207;28;20313;-61
2024/02/21 02:23:14;;;;;;;16.57;5.13;;;7.60;99.90;;;;;;5034756;28;20214;-61
2024/02/21 02:25:40;;;;;;;21.43;5.90;;;7.60;99.90;;;;;;5031249;28;20223;-60
2024/02/21 02:28:08;;;;;;;17.03;4.67;;;7.60;99.90;;;;;;5032699;28;20179;-61
2024/02/21 02:30:36;;;;;;;22.80;5.23;;;7.50;99.90;;;;;;5040905;28;20250;-61
2024/02/21 02:33:02;;;;;;;12.07;5.33;;;7.60;99.90;;;;;;5045481;28;20187;-61
2024/02/21 02:35:28;;;;;;;23.13;5.83;;;7.60;99.90;;;;;;5026933;28;20206;-59
2024/02/21 02:37:53;;;;;;;14.53;5.33;;;7.60;99.90;;;;;;5044305;28;20191;-62
2024/02/21 02:40:19;;;;;;;22.27;6.07;;;7.60;99.90;;;;;;5038062;28;20187;-60
2024/02/21 02:42:45;;;;;;;17.10;5.97;;;7.70;99.90;;;;;;5032675;28;20215;-60
2024/02/21 02:45:11;;;;;;;18.70;5.80;;;7.70;99.90;;;;;;5033022;28;20214;-61
2024/02/21 02:47:37;;;;;;;24.23;6.33;;;7.60;99.90;;;;;;5041476;28;20191;-60
2024/02/21 02:50:03;;;;;;;15.47;5.77;;;7.60;99.90;;;;;;5039920;28;20187;-55
2024/02/21 02:52:28;;;;;;;12.23;5.20;;;7.50;99.90;;;;;;5032185;28;20278;-58
2024/02/21 02:54:55;;;;;;;20.90;6.40;;;7.50;99.90;;;;;;5032233;28;20267;-55
2024/02/21 02:57:21;;;;;;;17.00;6.17;;;7.40;99.90;;;;;;5031671;28;20196;-56
2024/02/21 02:59:51;;;;;;;13.73;5.97;;;7.50;99.90;;;;;;5048620;28;20273;-58
2024/02/21 03:02:17;;;;;;;15.53;5.77;;;7.50;99.90;;;;;;5038085;28;20566;-57
2024/02/21 03:04:43;;;;;;;22.00;7.40;;;7.50;99.90;;;;;;5043731;28;20207;-55
2024/02/21 03:07:08;;;;;;;18.83;6.07;;;7.40;99.90;;;;;;5043177;28;20190;-56
2024/02/21 03:09:34;;;;;;;20.30;6.57;;;7.40;99.90;;;;;;5035391;28;20666;-53
2024/02/21 03:12:02;;;;;;;19.60;5.57;;;7.40;99.90;;;;;;5035694;28;20679;-53
2024/02/21 03:14:31;;;;;;;13.80;5.63;;;7.30;99.90;;;;;;5035857;28;20659;-55
2024/02/21 03:16:58;;;;;;;19.60;5.97;;;7.30;99.90;;;;;;5034534;28;20190;-57
2024/02/21 03:19:24;;;;;;;20.70;6.30;;;7.30;99.90;;;;;;5036507;28;20183;-54
2024/02/21 03:21:49;;;;;;;15.60;5.93;;;7.30;99.90;;;;;;5040067;28;20211;-52
2024/02/21 03:24:16;;;;;;;16.37;5.87;;;7.30;99.90;;;;;;5039912;28;20200;-58
2024/02/21 03:26:42;;;;;;;18.40;5.80;;;7.30;99.90;;;;;;5039134;28;20234;-54
2024/02/21 03:29:08;;;;;;;16.63;5.10;;;7.30;99.90;;;;;;5032201;28;20172;-54
2024/02/21 03:31:35;;;;;;;15.30;6.00;;;7.30;99.90;;;;;;5031215;28;20208;-54
2024/02/21 03:34:00;;;;;;;18.33;6.17;;;7.30;99.90;;;;;;5043783;28;20651;-52
2024/02/21 03:36:26;;;;;;;14.63;5.80;;;7.30;99.90;;;;;;5043066;28;20248;-53
2024/02/21 03:38:52;;;;;;;19.37;6.13;;;7.40;99.90;;;;;;5031340;28;20191;-55
2024/02/21 03:41:17;;;;;;;16.37;5.13;;;7.40;99.90;;;;;;5031871;28;20286;-54
2024/02/21 03:43:43;;;;;;;14.60;5.77;;;7.30;99.90;;;;;;5031127;28;20208;-53
2024/02/21 03:46:08;;;;;;;13.90;5.60;;;7.20;99.90;;;;;;5031500;28;20241;-52
2024/02/21 03:48:34;;;;;;;17.10;5.93;;;7.20;99.90;;;;;;5030772;28;20263;-55
2024/02/21 03:50:59;;;;;;;20.97;5.73;;;7.30;99.90;;;;;;5031184;28;20335;-54
2024/02/21 03:53:25;;;;;;;14.27;4.77;;;7.20;99.90;;;;;;5031185;28;20223;-55
2024/02/21 03:55:51;;;;;;;15.87;4.97;;;7.20;99.90;;;;;;5033346;28;20191;-56
2024/02/21 03:58:16;;;;;;;14.63;5.27;;;7.30;99.90;;;;;;5036419;28;20263;-57
2024/02/21 04:00:42;;;;;;;17.13;5.87;;;7.30;99.90;;;;;;5030829;28;20582;-58
2024/02/21 04:03:07;;;;;;;22.67;6.20;;;7.20;99.90;;;;;;5044309;28;20256;-57
2024/02/21 04:05:33;;;;;;;16.57;5.67;;;7.20;99.90;;;;;;5042401;28;20789;-58
2024/02/21 04:07:59;;;;;;;12.30;4.80;;;7.20;99.90;;;;;;5020957;28;20293;-56
2024/02/21 04:10:24;;;;;;;13.27;5.30;;;7.30;99.90;;;;;;5046272;28;20189;-55
2024/02/21 04:12:50;;;;;;;12.90;4.73;;;7.40;99.90;;;;;;5042430;28;20687;-59
2024/02/21 04:15:16;;;;;;;9.90;4.60;;;7.30;99.90;;;;;;5045100;28;20726;-56
2024/02/21 04:17:42;;;;;;;10.40;4.30;;;7.30;99.90;;;;;;5031451;28;20198;-56
2024/02/21 04:20:15;;;;;;;18.63;5.10;;;7.40;99.90;;;;;;5046032;28;20184;-58
2024/02/21 04:22:40;;;;;;;10.87;4.03;;;7.40;99.90;;;;;;5038861;28;20218;-54
2024/02/21 04:25:06;;;;;;;12.07;4.20;;;7.50;99.90;;;;;;5025453;28;20598;-58
2024/02/21 04:27:32;;;;;;;12.90;4.37;;;7.40;99.90;;;;;;5042362;28;20269;-59
2024/02/21 04:29:58;;;;;;;12.60;4.53;;;7.40;99.90;;;;;;5024464;28;20187;-56
2024/02/21 04:32:23;;;;;;;18.33;4.90;;;7.30;99.90;;;;;;5043356;28;20226;-54
2024/02/21 04:34:49;;;;;;;9.93;3.87;;;7.30;99.90;;;;;;5046941;28;20281;-54
2024/02/21 04:37:14;;;;;;;17.53;4.77;;;7.20;99.90;;;;;;5043968;28;20191;-57
2024/02/21 04:39:40;;;;;;;12.00;4.47;;;7.30;99.90;;;;;;5033806;28;20184;-56
2024/02/21 04:42:06;;;;;;;17.90;5.53;;;7.30;99.90;;;;;;5037386;28;20207;-55
2024/02/21 04:44:31;;;;;;;21.70;5.30;;;7.20;99.90;;;;;;5038422;28;20215;-55
2024/02/21 04:46:57;;;;;;;16.37;4.97;;;7.20;99.90;;;;;;5029773;28;20738;-54
2024/02/21 04:49:23;;;;;;;18.50;4.73;;;7.20;99.90;;;;;;5029529;28;20188;-55
2024/02/21 04:51:49;;;;;;;20.00;5.10;;;7.20;99.90;;;;;;5029975;28;20207;-57
2024/02/21 04:54:14;;;;;;;20.63;5.07;;;7.20;99.90;;;;;;5030202;28;20240;-56
2024/02/21 04:56:40;;;;;;;20.43;5.07;;;7.20;99.90;;;;;;5037680;28;20725;-52
2024/02/21 04:59:05;;;;;;;14.57;4.87;;;7.20;99.90;;;;;;5034568;28;20241;-51
2024/02/21 05:01:31;;;;;;;19.03;5.50;;;7.20;99.90;;;;;;5033600;28;20207;-57
2024/02/21 05:03:56;;;;;;;10.60;5.10;;;7.20;99.90;;;;;;5033008;28;20214;-57
2024/02/21 05:06:22;;;;;;;25.80;5.03;;;7.20;99.90;;;;;;5041586;28;20682;-52
2024/02/21 05:08:47;;;;;;;21.03;4.97;;;7.20;99.90;;;;;;5030794;28;20560;-52
2024/02/21 05:11:13;;;;;;;18.83;5.50;;;7.20;99.90;;;;;;5029799;28;20605;-55
2024/02/21 05:13:39;;;;;;;17.53;4.20;;;7.30;99.90;;;;;;5038691;28;20190;-58
2024/02/21 05:16:05;;;;;;;12.13;4.87;;;7.30;99.90;;;;;;5023311;28;20187;-53
2024/02/21 05:18:32;;;;;;;16.40;5.07;;;7.30;99.90;;;;;;5040933;28;20670;-54
2024/02/21 05:20:58;;;;;;;19.00;4.97;;;7.30;99.90;;;;;;5015567;28;20286;-52
2024/02/21 05:23:24;;;;;;;13.13;4.67;;;7.30;99.90;;;;;;5049547;28;20186;-54
2024/02/21 05:25:49;;;;;;;25.07;5.00;;;7.30;99.90;;;;;;5041181;28;20211;-54
2024/02/21 05:28:15;;;;;;;15.03;4.73;;;7.30;99.90;;;;;;5049206;28;20558;-55
2024/02/21 05:30:43;;;;;;;18.73;5.13;;;7.30;99.90;;;;;;5031991;28;20615;-55
2024/02/21 05:33:08;;;;;;;16.63;5.10;;;7.20;99.90;;;;;;5042738;28;20187;-56
2024/02/21 05:35:35;;;;;;;18.20;5.10;;;7.30;99.90;;;;;;5041053;28;20194;-60
2024/02/21 05:38:01;;;;;;;16.80;5.00;;;7.20;99.90;;;;;;5037129;28;20671;-56
2024/02/21 05:40:26;;;;;;;17.60;5.10;;;7.20;99.90;;;;;;5029487;28;20195;-57
2024/02/21 05:42:52;;;;;;;16.83;5.07;;;7.20;99.90;;;;;;5037497;28;20215;-56
2024/02/21 05:45:18;;;;;;;13.80;4.37;;;7.20;99.90;;;;;;5043726;28;20277;-55
2024/02/21 05:47:44;;;;;;;15.30;4.90;;;7.20;99.90;;;;;;5031101;28;20186;-57
2024/02/21 05:50:10;;;;;;;15.70;4.80;;;7.20;99.90;;;;;;5029336;28;20188;-58
2024/02/21 05:52:35;;;;;;;18.17;4.63;;;7.20;99.90;;;;;;5037562;28;20620;-58
2024/02/21 05:55:01;;;;;;;13.90;4.40;;;7.20;99.90;;;;;;5039924;28;20781;-56
2024/02/21 05:57:26;;;;;;;15.30;4.50;;;7.30;99.90;;;;;;5033236;28;20554;-55
2024/02/21 05:59:52;;;;;;;15.63;4.37;;;7.20;99.90;;;;;;5022471;28;20252;-59
2024/02/21 06:02:18;;;;;;;13.47;4.47;;;7.30;99.90;;;;;;5038917;28;20215;-55
2024/02/21 06:04:44;;;;;;;12.03;4.20;;;7.30;99.90;;;;;;5033189;28;20302;-57
2024/02/21 06:07:09;;;;;;;17.13;4.07;;;7.20;99.90;;;;;;5032617;28;20192;-59
2024/02/21 06:09:35;;;;;;;10.33;3.63;;;7.20;99.90;;;;;;5041241;28;20619;-56
2024/02/21 06:12:01;;;;;;;11.20;4.13;;;7.30;99.90;;;;;;5041781;28;20216;-52
2024/02/21 06:14:26;;;;;;;16.07;4.10;;;7.20;99.90;;;;;;5022899;28;20195;-55
2024/02/21 06:16:52;;;;;;;15.40;4.20;;;7.20;99.90;;;;;;5044073;28;20573;-58
2024/02/21 06:19:17;;;;;;;17.17;4.37;;;7.20;99.90;;;;;;5038952;28;20728;-58
2024/02/21 06:21:43;;;;;;;11.97;3.57;;;7.20;99.90;;;;;;5049737;28;20206;-52
2024/02/21 06:24:09;;;;;;;17.20;4.10;;;7.20;99.90;;;;;;5041275;28;20212;-56
2024/02/21 06:26:34;;;;;;;10.73;3.77;;;7.20;99.90;;;;;;5032218;28;20180;-59
2024/02/21 06:29:03;;;;;;;14.57;3.83;;;7.30;99.90;;;;;;5036680;28;20229;-54
2024/02/21 06:31:29;;;;;;;17.90;4.03;;;7.20;99.90;;;;;;5045273;28;20604;-56
2024/02/21 06:33:54;;;;;;;14.33;4.37;;;7.20;99.90;;;;;;5041020;28;20195;-58
2024/02/21 06:36:20;;;;;;;12.10;4.00;;;7.20;99.90;;;;;;5032588;28;20647;-56
2024/02/21 06:38:46;;;;;;;14.70;3.60;;;7.30;99.90;;;;;;5032121;28;20191;-52
2024/02/21 06:41:16;;;;;;;15.50;4.73;;;7.30;99.90;;;;;;5040909;28;20293;-57
2024/02/21 06:43:42;;;;;;;15.93;4.70;;;7.30;99.90;;;;;;5049154;28;20629;-52
2024/02/21 06:46:07;;;;;;;15.17;4.17;;;7.40;99.90;;;;;;5040829;28;20659;-57
2024/02/21 06:48:33;;;;;;;17.70;4.53;;;7.40;99.90;;;;;;5032140;28;20195;-52
2024/02/21 06:50:58;;;;;;;13.20;4.37;;;7.30;99.90;;;;;;5040663;28;20204;-58
2024/02/21 06:53:24;;;;;;;19.77;4.30;;;7.40;99.90;;;;;;5031813;28;20279;-57
2024/02/21 06:55:49;;;;;;;22.07;4.80;;;7.40;99.90;;;;;;5031479;28;20199;-54
2024/02/21 06:58:16;;;;;;;18.93;4.30;;;7.40;99.90;;;;;;5039845;28;20187;-56
2024/02/21 07:00:43;;;;;;;15.60;4.67;;;7.40;99.90;;;;;;5031766;28;20257;-57
2024/02/21 07:03:08;;;;;;;17.37;5.23;;;7.40;99.90;;;;;;5037196;28;20607;-55
2024/02/21 07:05:34;;;;;;;15.27;4.53;;;7.30;99.90;;;;;;5031536;28;20219;-55
2024/02/21 07:07:59;;;;;;;20.17;5.60;;;7.40;99.90;;;;;;5039714;28;20184;-55
2024/02/21 07:10:25;;;;;;;20.27;5.70;;;7.30;99.90;;;;;;5040091;28;20282;-56
2024/02/21 07:12:52;;;;;;;18.30;6.43;;;7.30;99.90;;;;;;5030803;28;20211;-56
2024/02/21 07:15:18;;;;;;;19.87;5.10;;;7.30;99.90;;;;;;5031543;28;20544;-53
2024/02/21 07:17:43;;;;;;;18.00;5.07;;;7.20;99.90;;;;;;5038666;28;20191;-53
2024/02/21 07:20:09;;;;;;;24.43;5.13;;;7.30;99.90;;;;;;5044282;28;20599;-58
2024/02/21 07:22:35;;;;;;;13.90;4.47;;;7.30;99.90;;;;;;5051187;28;20234;-52
2024/02/21 07:25:00;;;;;;;11.93;4.30;;;7.20;99.90;;;;;;5039423;28;20216;-53
2024/02/21 07:27:30;;;;;;;13.53;4.43;;;7.20;99.90;;;;;;5037117;28;20183;-54
2024/02/21 07:29:56;;;;;;;16.93;5.10;;;7.30;99.90;;;;;;5042696;28;20182;-54
2024/02/21 07:32:21;;;;;;;16.53;4.37;;;7.30;99.90;;;;;;5036190;28;20207;-55
2024/02/21 07:34:47;;;;;;;16.90;5.10;;;7.30;99.90;;;;;;5030971;28;20507;-56
2024/02/21 07:37:12;;;;;;;20.13;5.13;;;7.40;99.90;;;;;;5040169;28;20469;-54
2024/02/21 07:39:38;;;;;;;19.90;4.90;;;7.40;99.90;;;;;;5042065;28;20180;-54
2024/02/21 07:42:04;;;;;;;14.50;4.60;;;7.40;99.90;;;;;;5041686;28;20216;-58
2024/02/21 07:44:32;;;;;;;20.20;7.80;;;7.40;99.90;;;;;;5040422;28;20223;-53
2024/02/21 07:46:58;;;;;;;23.10;6.47;;;7.50;99.90;;;;;;5042137;28;20220;-55
2024/02/21 07:49:24;;;;;;;19.07;5.80;;;7.50;99.90;;;;;;5036076;28;20585;-56
2024/02/21 07:51:50;;;;;;;16.57;5.40;;;7.50;99.90;;;;;;5038559;28;20203;-55
2024/02/21 07:54:15;;;;;;;17.70;5.20;;;7.50;99.90;;;;;;5030965;28;20651;-57
2024/02/21 07:56:41;;;;;;;18.60;5.63;;;7.50;99.90;;;;;;5039072;28;20222;-54
2024/02/21 07:59:07;;;;;;;12.57;5.43;;;7.40;99.90;;;;;;5038086;28;20184;-58
2024/02/21 08:01:33;;;;;;;16.83;4.73;;;7.60;99.90;;;;;;5038320;28;20210;-54
2024/02/21 08:03:59;;;;;;;19.13;5.20;;;7.60;99.90;;;;;;5031026;28;20285;-55
2024/02/21 08:06:24;;;;;;;12.53;4.80;;;7.50;99.90;;;;;;5030177;28;20237;-55
2024/02/21 08:08:50;;;;;;;12.40;5.10;;;7.50;99.90;;;;;;5038085;28;20572;-54
2024/02/21 08:11:16;;;;;;;11.67;4.63;;;7.60;99.90;;;;;;5036026;28;20210;-55
2024/02/21 08:13:41;;;;;;;13.23;4.20;;;7.80;99.90;;;;;;5041779;28;20187;-53
2024/02/21 08:16:07;;;;;;;16.20;5.00;;;7.70;99.90;;;;;;5037556;28;20214;-56
2024/02/21 08:18:36;;;;;;;13.80;4.90;;;7.80;99.90;;;;;;5019508;28;20179;-57
2024/02/21 08:21:03;;;;;;;15.53;4.47;;;7.90;99.90;;;;;;5042068;28;20207;-54
2024/02/21 08:23:28;;;;;;;14.37;4.27;;;7.90;99.90;;;;;;5042147;28;20647;-53
2024/02/21 08:25:54;;;;;;;20.13;4.90;;;8.00;99.90;;;;;;5029288;28;20222;-56
2024/02/21 08:28:20;;;;;;;11.27;5.00;;;7.90;99.90;;;;;;5029121;28;20270;-58
2024/02/21 08:30:47;;;;;;;13.87;5.67;;;7.90;99.90;;;;;;5038385;28;20211;-56
2024/02/21 08:33:15;;;;;;;15.27;5.50;;;7.90;99.90;;;;;;5041232;28;20183;-55
2024/02/21 08:35:40;;;;;;;15.00;5.13;;;8.00;99.90;;;;;;5041088;28;20191;-56
2024/02/21 08:38:06;;;;;;;18.07;5.10;;;7.90;99.90;;;;;;5045083;28;20547;-56
2024/02/21 08:40:31;;;;;;;21.87;5.73;;;7.90;99.90;;;;;;5029786;28;20645;-53
2024/02/21 08:42:57;;;;;;;16.47;5.27;;;7.90;99.90;;;;;;5037485;28;20585;-54
2024/02/21 08:45:22;;;;;;;12.80;4.87;;;7.90;99.90;;;;;;5037603;28;20223;-59
2024/02/21 08:47:48;;;;;;;13.87;5.07;;;8.10;99.90;;;;;;5030266;28;20184;-58
2024/02/21 08:50:14;;;;;;;16.13;4.90;;;8.10;99.90;;;;;;5044021;28;20188;-53
2024/02/21 08:52:39;;;;;;;16.80;5.53;;;8.10;99.90;;;;;;5037438;28;20214;-57
2024/02/21 08:55:05;;;;;;;16.93;5.20;;;8.10;99.90;;;;;;5010813;28;20234;-59
2024/02/21 08:57:36;;;;;;;19.20;5.27;;;8.00;99.90;;;;;;5037004;28;20196;-58
2024/02/21 09:00:09;;;;;;;15.47;5.17;;;8.00;99.90;;;;;;5032871;28;20195;-57
2024/02/21 09:02:37;;;;;;;13.03;5.43;;;8.00;99.90;;;;;;5032692;28;20223;-60
2024/02/21 09:05:05;;;;;;;15.80;5.10;;;8.00;99.90;;;;;;5029383;28;20311;-56
2024/02/21 09:07:30;;;;;;;20.23;5.57;;;8.00;99.90;;;;;;5028939;28;20192;-56
2024/02/21 09:09:56;;;;;;;15.60;5.20;;;8.00;99.90;;;;;;5037326;28;20197;-57
2024/02/21 09:12:22;;;;;;;15.23;5.40;;;8.00;99.90;;;;;;5029019;28;20218;-59
2024/02/21 09:14:50;;;;;;;15.17;4.70;;;8.00;99.90;;;;;;5037227;28;20195;-56
2024/02/21 09:17:17;;;;;;;13.37;4.50;;;8.10;99.90;;;;;;5036663;28;20274;-56
2024/02/21 09:19:43;;;;;;;16.00;3.73;;;8.20;99.90;;;;;;5029219;28;20188;-55
2024/02/21 09:22:09;;;;;;;10.63;4.03;;;8.30;99.90;;;;;;5041835;28;20210;-58
2024/02/21 09:24:35;;;;;;;20.37;4.83;;;8.40;99.90;;;;;;5032653;28;20225;-57
2024/02/21 09:27:00;;;;;;;16.73;4.50;;;8.60;99.90;;;;;;5036605;28;20191;-57
2024/02/21 09:29:26;;;;;;;12.23;4.10;;;8.80;99.90;;;;;;5028887;28;20227;-56
2024/02/21 09:31:52;;;;;;;15.87;4.90;;;8.90;99.90;;;;;;5036769;28;20218;-58
2024/02/21 09:34:17;;;;;;;13.83;4.47;;;9.00;99.90;;;;;;5028708;28;20633;-60
2024/02/21 09:36:44;;;;;;;15.47;4.00;;;9.20;99.90;;;;;;5027845;28;20239;-60
2024/02/21 09:39:14;;;;;;;9.37;4.23;;;9.20;99.90;;;;;;5028926;28;20199;-59
2024/02/21 09:41:45;;;;;;;12.37;4.00;;;9.30;99.90;;;;;;5037263;28;20214;-56
2024/02/21 09:44:16;;;;;;;15.13;4.83;;;9.40;99.90;;;;;;5028531;28;20215;-58
2024/02/21 09:47:01;;;;;;;17.13;4.13;;;9.50;99.90;;;;;;5026999;28;21476;-56
2024/02/21 09:49:34;;;;;;;12.80;4.00;;;9.60;99.90;;;;;;5035706;28;20262;-56
2024/02/21 09:52:04;;;;;;;14.70;5.13;;;9.80;99.90;;;;;;5031910;28;20218;-56
2024/02/21 09:54:31;;;;;;;16.37;4.70;;;10.00;99.90;;;;;;5044394;28;20186;-60
2024/02/21 09:56:56;;;;;;;15.93;4.80;;;10.00;99.90;;;;;;5047782;28;20179;-59
2024/02/21 09:59:24;;;;;;;17.17;4.57;;;9.80;99.90;;;;;;5042658;28;20203;-58
2024/02/21 10:01:53;;;;;;;12.67;4.50;;;9.60;99.90;;;;;;5038109;28;20416;-58
2024/02/21 10:04:20;;;;;;;10.93;4.77;;;9.60;99.90;;;;;;5040156;28;20245;-60
2024/02/21 10:06:45;;;;;;;11.47;4.70;;;9.70;99.90;;;;;;5030084;28;20190;-58
2024/02/21 10:09:27;;;;;;;18.47;5.70;;;9.70;99.90;;;;;;5032982;28;20706;-59
2024/02/21 10:11:53;;;;;;;17.23;5.57;;;9.80;99.90;;;;;;5027989;28;20682;-57
2024/02/21 10:14:19;;;;;;;12.57;4.33;;;9.80;99.90;;;;;;5028621;28;20188;-59
2024/02/21 10:16:49;;;;;;;13.63;4.93;;;10.10;99.90;;;;;;5035803;28;20325;-59
2024/02/21 10:19:19;;;;;;;11.53;4.80;;;10.30;99.90;;;;;;5041731;28;20187;-57
2024/02/21 10:22:08;;;;;;;15.27;3.90;;;10.50;99.90;;;;;;5030421;28;20215;-57
2024/02/21 10:24:34;;;;;;;18.13;4.50;;;10.60;99.90;;;;;;5028375;28;20230;-57
2024/02/21 10:27:08;;;;;;;16.20;4.57;;;10.60;99.90;;;;;;5047389;28;20186;-55
2024/02/21 10:29:37;;;;;;;11.57;4.00;;;10.40;99.90;;;;;;5040087;28;20569;-58
2024/02/21 10:32:07;;;;;;;19.17;5.07;;;10.40;99.90;;;;;;5031385;28;20297;-56
2024/02/21 10:34:33;;;;;;;12.67;4.63;;;10.30;99.90;;;;;;5039906;28;20291;-60
2024/02/21 10:37:06;;;;;;;13.43;4.20;;;10.30;99.90;;;;;;5039463;28;20285;-56
2024/02/21 10:39:33;;;;;;;11.93;4.50;;;10.50;99.90;;;;;;5039903;28;20214;-56
2024/02/21 10:42:03;;;;;;;11.30;4.10;;;10.50;99.90;;;;;;5028412;28;20273;-56
2024/02/21 10:44:31;;;;;;;15.47;4.53;;;10.70;99.90;;;;;;5028114;28;20231;-56
2024/02/21 10:46:57;;;;;;;16.67;3.83;;;11.00;99.90;;;;;;5043878;28;20251;-58
2024/02/21 10:49:27;;;;;;;15.90;3.60;;;11.20;99.90;;;;;;5040090;28;20572;-58
2024/02/21 10:52:06;;;;;;;14.47;3.70;;;11.20;99.90;;;;;;5031531;28;20226;-59
2024/02/21 10:54:39;;;;;;;12.97;4.47;;;11.10;99.90;;;;;;5031722;28;20215;-56
2024/02/21 10:57:06;;;;;;;16.17;3.90;;;11.10;99.90;;;;;;5039636;28;20187;-57
2024/02/21 10:59:32;;;;;;;16.57;4.27;;;11.10;99.90;;;;;;5031799;28;20535;-57
2024/02/21 11:01:58;;;;;;;14.03;3.80;;;11.20;99.90;;;;;;5031292;28;20294;-56
2024/02/21 11:04:25;;;;;;;13.97;3.77;;;11.20;99.90;;;;;;5038021;28;20211;-57
2024/02/21 11:06:51;;;;;;;12.37;3.30;;;11.10;99.90;;;;;;5042191;28;20187;-54
2024/02/21 11:09:17;;;;;;;10.87;3.50;;;11.00;99.90;;;;;;5051476;28;20190;-54
2024/02/21 11:11:44;;;;;;;13.80;4.03;;;11.00;99.90;;;;;;5034758;28;20249;-57
2024/02/21 11:14:20;;;;;;;16.00;3.60;;;11.10;99.90;;;;;;5043206;28;20570;-56
2024/02/21 11:16:46;;;;;;;12.50;3.37;;;11.00;99.90;;;;;;5041315;28;20195;-53
2024/02/21 11:19:24;;;;;;;13.37;4.07;;;11.10;99.90;;;;;;5031687;28;20577;-56
2024/02/21 11:21:52;;;;;;;11.93;3.90;;;10.90;99.90;;;;;;5039428;28;20562;-58
2024/02/21 11:24:28;;;;;;;15.37;3.70;;;10.80;99.90;;;;;;5030956;28;20211;-57
2024/02/21 11:26:54;;;;;;;8.23;3.17;;;10.70;99.90;;;;;;5038945;28;20269;-56
2024/02/21 11:29:27;;;;;;;11.90;3.30;;;10.70;99.90;;;;;;5037017;28;20588;-55
2024/02/21 11:31:53;;;;;;;16.30;3.93;;;10.70;99.90;;;;;;5042519;28;20269;-57
2024/02/21 11:34:19;;;;;;;10.70;3.33;;;10.50;99.90;;;;;;5051094;28;20191;-57
2024/02/21 11:36:52;;;;;;;10.00;3.00;;;10.50;99.90;;;;;;5050364;28;20191;-58
2024/02/21 11:39:19;;;;;;;14.50;3.70;;;10.60;99.90;;;;;;5037231;28;20215;-56
2024/02/21 11:41:44;;;;;;;8.43;3.00;;;10.70;99.90;;;;;;5039816;28;20217;-54
2024/02/21 11:44:10;;;;;;;21.47;6.87;;;10.90;99.90;;;;;;5042266;28;20219;-54
2024/02/21 11:46:36;;;;;;;14.37;4.37;;;10.80;99.90;;;;;;5041740;28;20195;-56
2024/02/21 11:49:03;;;;;;;13.00;3.00;;;10.80;99.90;;;;;;5039196;28;20203;-55
2024/02/21 11:51:29;;;;;;;18.07;3.30;;;10.90;99.90;;;;;;5045833;28;20321;-56
2024/02/21 11:53:54;;;;;;;6.63;3.27;;;10.80;99.90;;;;;;5039646;28;20663;-58
2024/02/21 11:56:20;;;;;;;11.83;4.00;;;10.90;99.90;;;;;;5036273;28;20222;-58
2024/02/21 11:58:47;;;;;;;27.50;7.53;;;10.90;99.90;;;;;;5041164;28;20196;-57
2024/02/21 12:01:13;;;;;;;15.33;4.20;;;10.90;99.90;;;;;;5042096;28;20211;-57
2024/02/21 12:03:41;;;;;;;15.07;3.93;;;11.00;99.90;;;;;;5041743;28;20499;-57
2024/02/21 12:06:07;;;;;;;12.57;3.83;;;11.10;99.90;;;;;;5046112;28;20211;-57
2024/02/21 12:08:45;;;;;;;12.63;3.40;;;10.80;99.90;;;;;;5037915;28;20646;-56
2024/02/21 12:11:21;;;;;;;11.10;3.10;;;10.80;99.90;;;;;;5036484;28;20203;-58
2024/02/21 12:13:57;;;;;;;10.07;3.20;;;11.00;99.90;;;;;;5035269;28;20198;-52
2024/02/21 12:16:23;;;;;;;14.03;3.93;;;10.90;99.90;;;;;;5036283;28;20585;-56
2024/02/21 12:18:49;;;;;;;12.53;3.37;;;11.00;99.90;;;;;;5039675;28;20188;-56
2024/02/21 12:21:16;;;;;;;11.10;3.23;;;11.10;99.90;;;;;;5034770;28;20199;-59
2024/02/21 12:23:41;;;;;;;11.03;3.17;;;11.30;99.90;;;;;;5033187;28;20190;-57
2024/02/21 12:26:08;;;;;;;5.67;2.80;;;11.20;99.90;;;;;;5037935;28;20207;-56
2024/02/21 12:28:33;;;;;;;12.60;3.10;;;11.20;99.90;;;;;;5029330;28;20233;-55
2024/02/21 12:30:59;;;;;;;15.10;3.00;;;10.90;99.90;;;;;;5032378;28;20843;-56
2024/02/21 12:33:24;;;;;;;8.57;3.50;;;10.80;99.90;;;;;;5035274;28;20188;-57
2024/02/21 12:35:50;;;;;;;11.87;3.40;;;10.70;99.90;;;;;;5029394;28;20575;-56
2024/02/21 12:38:17;;;;;;;17.53;3.57;;;10.70;99.90;;;;;;5029236;28;20203;-56
2024/02/21 12:40:43;;;;;;;8.80;2.87;;;10.70;99.90;;;;;;5038270;28;20230;-54
2024/02/21 12:43:09;;;;;;;8.23;2.53;;;10.60;99.90;;;;;;5036937;28;20674;-57